createdAt,value
2019-04-16T00:00:26.556Z,44.3
2019-04-16T00:01:35.448Z,44.2
2019-04-16T00:02:53.229Z,44.3
2019-04-16T00:04:02.122Z,44.2
2019-04-16T00:05:11.265Z,44.3
2019-04-16T00:06:21.002Z,44.01
2019-04-16T00:07:30.169Z,44.01
2019-04-16T00:08:39.867Z,44.2
2019-04-16T00:09:49.272Z,44.11
2019-04-16T00:10:58.423Z,44.3
2019-04-16T00:12:07.618Z,44.01
2019-04-16T00:13:16.501Z,43.91
2019-04-16T00:14:25.656Z,43.91
2019-04-16T00:15:34.795Z,43.91
2019-04-16T00:16:48.485Z,43.91
2019-04-16T00:17:57.705Z,43.91
2019-04-16T00:19:09.054Z,44.01
2019-04-16T00:20:17.956Z,44.3
2019-04-16T00:21:27.105Z,43.91
2019-04-16T00:22:35.980Z,43.91
2019-04-16T00:23:46.668Z,44.01
2019-04-16T00:24:56.381Z,44.01
2019-04-16T00:26:05.536Z,44.11
2019-04-16T00:27:14.412Z,44.01
2019-04-16T00:28:23.556Z,44.01
2019-04-16T00:29:39.569Z,44.11
2019-04-16T00:30:48.717Z,44.01
2019-04-16T00:31:57.595Z,44.11
2019-04-16T00:33:13.599Z,44.11
2019-04-16T00:34:22.748Z,44.11
2019-04-16T00:35:31.645Z,43.91
2019-04-16T00:36:40.854Z,44.2
2019-04-16T00:37:54.967Z,43.82
2019-04-16T00:39:04.601Z,44.01
2019-04-16T00:40:13.480Z,44.01
2019-04-16T00:41:26.027Z,43.82
2019-04-16T00:42:35.210Z,44.2
2019-04-16T00:43:46.437Z,43.91
2019-04-16T00:44:55.624Z,43.82
2019-04-16T00:46:08.153Z,43.82
2019-04-16T00:47:20.036Z,43.82
2019-04-16T00:48:29.464Z,43.82
2019-04-16T00:49:40.145Z,43.82
2019-04-16T00:50:49.030Z,43.82
2019-04-16T00:51:58.608Z,43.63
2019-04-16T00:53:12.878Z,43.63
2019-04-16T00:54:21.754Z,43.63
2019-04-16T00:55:30.901Z,43.82
2019-04-16T00:56:39.780Z,43.73
2019-04-16T00:57:53.364Z,43.53
2019-04-16T00:59:02.442Z,43.73
2019-04-16T01:00:11.310Z,43.73
2019-04-16T01:01:20.459Z,43.53
2019-04-16T01:02:29.603Z,43.53
2019-04-16T01:03:38.487Z,43.63
2019-04-16T01:04:47.366Z,43.63
2019-04-16T01:05:56.513Z,43.63
2019-04-16T01:07:09.589Z,43.63
2019-04-16T01:08:31.943Z,43.53
2019-04-16T01:09:41.113Z,43.63
2019-04-16T01:10:50.039Z,43.53
2019-04-16T01:11:59.457Z,43.63
2019-04-16T01:13:09.099Z,43.63
2019-04-16T01:14:18.277Z,43.63
2019-04-16T01:15:33.878Z,43.63
2019-04-16T01:16:43.026Z,43.53
2019-04-16T01:17:52.708Z,43.73
2019-04-16T01:19:01.855Z,43.91
2019-04-16T01:20:15.329Z,43.73
2019-04-16T01:21:24.793Z,43.73
2019-04-16T01:22:34.205Z,43.44
2019-04-16T01:23:43.348Z,43.44
2019-04-16T01:24:55.694Z,43.63
2019-04-16T01:26:04.843Z,43.53
2019-04-16T01:27:14.259Z,43.63
2019-04-16T01:28:23.126Z,43.44
2019-04-16T01:29:36.918Z,43.73
2019-04-16T01:30:46.058Z,43.73
2019-04-16T01:31:54.935Z,43.63
2019-04-16T01:33:03.813Z,43.44
2019-04-16T01:34:19.856Z,43.82
2019-04-16T01:35:29.028Z,43.44
2019-04-16T01:36:38.172Z,43.53
2019-04-16T01:37:47.054Z,43.53
2019-04-16T01:39:18.310Z,43.44
2019-04-16T01:40:27.522Z,43.53
2019-04-16T01:41:36.666Z,43.53
2019-04-16T01:42:45.550Z,43.63
2019-04-16T01:44:00.048Z,43.73
2019-04-16T01:45:09.246Z,43.91
2019-04-16T01:46:18.392Z,43.53
2019-04-16T01:47:27.262Z,43.63
2019-04-16T01:48:41.849Z,43.63
2019-04-16T01:49:51.048Z,43.51
2019-04-16T01:50:59.929Z,43.73
2019-04-16T01:52:08.816Z,43.53
2019-04-16T01:53:24.096Z,43.53
2019-04-16T01:54:33.233Z,43.6
2019-04-16T01:55:45.008Z,43.73
2019-04-16T01:56:54.155Z,43.73
2019-04-16T01:58:07.066Z,43.73
2019-04-16T01:59:15.941Z,43.73
2019-04-16T02:00:25.344Z,43.73
2019-04-16T02:01:34.535Z,43.73
2019-04-16T02:02:49.035Z,43.63
2019-04-16T02:03:57.918Z,43.63
2019-04-16T02:05:06.793Z,43.63
2019-04-16T02:06:16.207Z,43.6
2019-04-16T02:07:30.201Z,43.63
2019-04-16T02:08:39.073Z,43.63
2019-04-16T02:09:47.958Z,43.6
2019-04-16T02:10:57.094Z,43.6
2019-04-16T02:12:06.310Z,43.15
2019-04-16T02:13:20.266Z,43.53
2019-04-16T02:14:29.401Z,43.6
2019-04-16T02:15:38.555Z,43.63
2019-04-16T02:16:47.434Z,43.63
2019-04-16T02:18:01.195Z,43.44
2019-04-16T02:19:10.649Z,43.63
2019-04-16T02:20:19.517Z,43.63
2019-04-16T02:21:28.677Z,43.24
2019-04-16T02:22:37.554Z,43.44
2019-04-16T02:23:51.960Z,43.44
2019-04-16T02:25:00.837Z,43.63
2019-04-16T02:26:09.982Z,43.15
2019-04-16T02:27:19.124Z,43.82
2019-04-16T02:28:32.967Z,43.44
2019-04-16T02:29:41.842Z,43.82
2019-04-16T02:30:51.332Z,43.8
2019-04-16T02:32:01.783Z,43.91
2019-04-16T02:33:11.617Z,43.73
2019-04-16T02:34:20.789Z,43.73
2019-04-16T02:35:30.657Z,43.63
2019-04-16T02:36:40.091Z,43.51
2019-04-16T02:37:48.995Z,43.82
2019-04-16T02:38:58.407Z,43.8
2019-04-16T02:40:07.305Z,43.91
2019-04-16T02:41:26.780Z,43.63
2019-04-16T02:42:36.006Z,43.63
2019-04-16T02:43:44.906Z,43.32
2019-04-16T02:44:54.340Z,43.24
2019-04-16T02:46:03.228Z,43.51
2019-04-16T02:47:12.136Z,43.34
2019-04-16T02:48:21.637Z,43.23
2019-04-16T02:49:30.789Z,43.34
2019-04-16T02:50:40.480Z,43.53
2019-04-16T02:51:49.936Z,43.63
2019-04-16T02:52:59.095Z,43.44
2019-04-16T02:54:08.303Z,43.41
2019-04-16T02:55:17.468Z,43.32
2019-04-16T02:56:26.898Z,43.51
2019-04-16T02:57:36.103Z,43.6
2019-04-16T02:58:44.976Z,43.32
2019-04-16T02:59:53.877Z,43.44
2019-04-16T03:01:03.023Z,43.44
2019-04-16T03:02:12.174Z,43.51
2019-04-16T03:03:27.762Z,43.23
2019-04-16T03:04:37.447Z,43.32
2019-04-16T03:05:46.653Z,43.41
2019-04-16T03:06:55.551Z,43.41
2019-04-16T03:08:10.060Z,43.44
2019-04-16T03:09:18.942Z,43.32
2019-04-16T03:10:28.625Z,43.32
2019-04-16T03:11:37.825Z,43.32
2019-04-16T03:12:54.419Z,43.51
2019-04-16T03:14:03.569Z,43.41
2019-04-16T03:15:12.668Z,43.32
2019-04-16T03:16:21.548Z,43.41
2019-04-16T03:17:30.743Z,43.23
2019-04-16T03:18:49.446Z,43.41
2019-04-16T03:19:58.872Z,43.32
2019-04-16T03:21:08.189Z,43.13
2019-04-16T03:22:17.297Z,43.32
2019-04-16T03:23:26.177Z,43.32
2019-04-16T03:24:40.308Z,43.51
2019-04-16T03:25:50.097Z,43.32
2019-04-16T03:26:58.982Z,43.51
2019-04-16T03:28:11.526Z,43.51
2019-04-16T03:29:20.993Z,43.41
2019-04-16T03:30:42.952Z,43.41
2019-04-16T03:32:00.086Z,43.23
2019-04-16T03:33:17.376Z,43.23
2019-04-16T03:34:26.327Z,43.23
2019-04-16T03:35:35.205Z,43.23
2019-04-16T03:36:44.345Z,43.32
2019-04-16T03:37:53.490Z,43.32
2019-04-16T03:39:11.931Z,43.23
2019-04-16T03:40:27.949Z,43.32
2019-04-16T03:41:36.826Z,43.32
2019-04-16T03:42:45.703Z,43.23
2019-04-16T03:43:54.864Z,43.32
2019-04-16T03:45:12.120Z,43.32
2019-04-16T03:46:21.008Z,43.13
2019-04-16T03:47:30.425Z,43.32
2019-04-16T03:48:39.574Z,43.23
2019-04-16T03:49:48.457Z,43.23
2019-04-16T03:51:05.396Z,43.13
2019-04-16T03:52:14.535Z,43.13
2019-04-16T03:53:23.685Z,43.23
2019-04-16T03:54:32.563Z,43.13
2019-04-16T03:55:41.446Z,43.13
2019-04-16T03:56:50.598Z,43.13
2019-04-16T03:58:07.685Z,43.13
2019-04-16T03:59:16.833Z,43.23
2019-04-16T04:00:26.142Z,43.13
2019-04-16T04:01:35.310Z,43.03
2019-04-16T04:02:53.768Z,43.23
2019-04-16T04:04:03.202Z,43.03
2019-04-16T04:05:12.366Z,43.13
2019-04-16T04:06:21.245Z,43.13
2019-04-16T04:07:30.111Z,43.23
2019-04-16T04:08:39.388Z,43.03
2019-04-16T04:09:58.790Z,43.13
2019-04-16T04:11:11.740Z,43.23
2019-04-16T04:12:21.888Z,43.03
2019-04-16T04:13:32.742Z,43.23
2019-04-16T04:14:41.682Z,43.03
2019-04-16T04:15:50.833Z,42.94
2019-04-16T04:17:09.412Z,43.13
2019-04-16T04:18:19.109Z,43.03
2019-04-16T04:19:28.304Z,42.94
2019-04-16T04:20:37.463Z,42.94
2019-04-16T04:21:46.340Z,42.94
2019-04-16T04:23:00.026Z,42.84
2019-04-16T04:24:09.461Z,43.23
2019-04-16T04:25:18.347Z,42.94
2019-04-16T04:26:27.545Z,43.03
2019-04-16T04:27:36.466Z,43.03
2019-04-16T04:28:54.712Z,43.03
2019-04-16T04:30:03.600Z,43.03
2019-04-16T04:31:12.954Z,42.94
2019-04-16T04:32:21.979Z,42.94
2019-04-16T04:33:31.141Z,42.55
2019-04-16T04:34:50.735Z,42.65
2019-04-16T04:36:00.017Z,42.74
2019-04-16T04:37:08.984Z,42.55
2019-04-16T04:38:18.154Z,42.84
2019-04-16T04:39:27.304Z,43.03
2019-04-16T04:40:50.253Z,42.74
2019-04-16T04:42:02.260Z,42.74
2019-04-16T04:43:11.430Z,42.94
2019-04-16T04:44:20.707Z,42.84
2019-04-16T04:45:29.594Z,43.03
2019-04-16T04:46:48.037Z,42.94
2019-04-16T04:47:57.727Z,42.55
2019-04-16T04:49:06.889Z,42.94
2019-04-16T04:50:16.589Z,42.65
2019-04-16T04:51:25.471Z,42.94
2019-04-16T04:52:34.613Z,43.03
2019-04-16T04:53:52.096Z,42.84
2019-04-16T04:55:01.239Z,42.74
2019-04-16T04:56:10.115Z,42.84
2019-04-16T04:57:22.469Z,42.84
2019-04-16T04:58:36.899Z,42.74
2019-04-16T04:59:45.779Z,42.74
2019-04-16T05:00:54.915Z,42.94
2019-04-16T05:02:03.794Z,42.65
2019-04-16T05:03:19.279Z,42.74
2019-04-16T05:04:28.438Z,42.55
2019-04-16T05:05:37.309Z,42.84
2019-04-16T05:06:46.755Z,42.74
2019-04-16T05:08:02.069Z,42.84
2019-04-16T05:09:10.946Z,42.74
2019-04-16T05:10:20.347Z,42.65
2019-04-16T05:11:29.287Z,42.65
2019-04-16T05:12:38.170Z,42.84
2019-04-16T05:13:47.043Z,42.84
2019-04-16T05:15:03.817Z,42.65
2019-04-16T05:16:12.831Z,42.65
2019-04-16T05:17:22.023Z,42.55
2019-04-16T05:18:31.437Z,42.84
2019-04-16T05:19:46.766Z,42.55
2019-04-16T05:20:55.648Z,42.74
2019-04-16T05:22:04.800Z,42.55
2019-04-16T05:23:14.117Z,42.65
2019-04-16T05:24:31.245Z,42.84
2019-04-16T05:25:42.288Z,42.94
2019-04-16T05:26:51.155Z,42.84
2019-04-16T05:28:03.045Z,42.94
2019-04-16T05:29:20.300Z,42.74
2019-04-16T05:30:29.178Z,42.74
2019-04-16T05:31:38.339Z,42.74
2019-04-16T05:32:47.487Z,42.84
2019-04-16T05:34:00.544Z,42.84
2019-04-16T05:35:13.445Z,42.94
2019-04-16T05:36:23.871Z,42.94
2019-04-16T05:37:32.753Z,42.84
2019-04-16T05:38:41.914Z,42.84
2019-04-16T05:39:51.065Z,42.65
2019-04-16T05:41:20.201Z,42.84
2019-04-16T05:42:31.081Z,42.94
2019-04-16T05:43:39.951Z,42.94
2019-04-16T05:44:48.871Z,42.65
2019-04-16T05:45:57.743Z,42.65
2019-04-16T05:47:11.096Z,42.65
2019-04-16T05:48:24.981Z,42.65
2019-04-16T05:49:34.126Z,42.65
2019-04-16T05:50:43.271Z,42.74
2019-04-16T05:51:52.418Z,42.65
2019-04-16T05:53:12.766Z,42.84
2019-04-16T05:54:22.714Z,42.94
2019-04-16T05:55:31.856Z,42.55
2019-04-16T05:56:41.053Z,42.84
2019-04-16T05:57:50.190Z,43.03
2019-04-16T05:59:05.397Z,42.94
2019-04-16T06:00:14.815Z,43.03
2019-04-16T06:01:23.965Z,42.55
2019-04-16T06:02:33.712Z,42.94
2019-04-16T06:03:42.859Z,42.55
2019-04-16T06:04:58.636Z,42.65
2019-04-16T06:06:07.779Z,42.94
2019-04-16T06:07:17.198Z,42.55
2019-04-16T06:08:26.394Z,42.55
2019-04-16T06:09:35.550Z,42.94
2019-04-16T06:10:52.523Z,42.94
2019-04-16T06:12:05.775Z,43.13
2019-04-16T06:13:17.255Z,43.13
2019-04-16T06:14:28.441Z,42.94
2019-04-16T06:15:38.156Z,42.65
2019-04-16T06:16:47.567Z,43.03
2019-04-16T06:18:02.404Z,42.55
2019-04-16T06:19:14.453Z,42.65
2019-04-16T06:20:23.913Z,42.65
2019-04-16T06:21:33.593Z,42.65
2019-04-16T06:22:42.469Z,42.74
2019-04-16T06:23:51.637Z,42.55
2019-04-16T06:25:11.307Z,43.03
2019-04-16T06:26:20.748Z,42.84
2019-04-16T06:27:29.621Z,42.74
2019-04-16T06:28:38.766Z,42.74
2019-04-16T06:29:49.676Z,42.84
2019-04-16T06:31:10.099Z,42.74
2019-04-16T06:32:19.566Z,42.74
2019-04-16T06:33:30.789Z,42.84
2019-04-16T06:34:39.664Z,42.84
2019-04-16T06:35:48.534Z,42.65
2019-04-16T06:36:57.724Z,42.94
2019-04-16T06:38:06.612Z,42.74
2019-04-16T06:39:15.496Z,42.65
2019-04-16T06:40:24.917Z,42.74
2019-04-16T06:41:47.653Z,42.94
2019-04-16T06:43:02.503Z,43.03
2019-04-16T06:44:12.201Z,42.65
2019-04-16T06:45:21.934Z,42.74
2019-04-16T06:46:31.075Z,42.84
2019-04-16T06:47:45.073Z,42.84
2019-04-16T06:48:54.488Z,42.84
2019-04-16T06:50:03.359Z,42.65
2019-04-16T06:51:14.785Z,42.94
2019-04-16T06:52:23.708Z,42.65
2019-04-16T06:53:33.210Z,42.74
2019-04-16T06:54:45.152Z,42.65
2019-04-16T06:55:54.301Z,42.65
2019-04-16T06:57:03.449Z,42.65
2019-04-16T06:58:20.044Z,42.94
2019-04-16T06:59:33.370Z,42.65
2019-04-16T07:00:43.337Z,42.65
2019-04-16T07:01:52.845Z,42.94
2019-04-16T07:03:04.792Z,42.94
2019-04-16T07:04:13.676Z,42.65
2019-04-16T07:05:22.590Z,42.65
2019-04-16T07:06:39.180Z,42.94
2019-04-16T07:07:50.941Z,42.74
2019-04-16T07:08:59.826Z,42.94
2019-04-16T07:10:08.975Z,43.03
2019-04-16T07:11:18.862Z,42.55
2019-04-16T07:12:28.575Z,42.84
2019-04-16T07:13:45.018Z,42.84
2019-04-16T07:14:54.180Z,42.55
2019-04-16T07:16:03.329Z,42.55
2019-04-16T07:17:12.272Z,42.94
2019-04-16T07:18:25.323Z,42.74
2019-04-16T07:19:34.493Z,42.84
2019-04-16T07:20:49.188Z,42.65
2019-04-16T07:21:58.325Z,42.84
2019-04-16T07:23:07.537Z,43.03
2019-04-16T07:24:17.429Z,42.84
2019-04-16T07:25:45.214Z,43.03
2019-04-16T07:26:58.851Z,42.84
2019-04-16T07:28:08.768Z,42.84
2019-04-16T07:29:18.429Z,42.84
2019-04-16T07:30:27.497Z,42.86
2019-04-16T07:31:41.682Z,43.03
2019-04-16T07:32:55.401Z,42.84
2019-04-16T07:34:07.645Z,42.84
2019-04-16T07:35:17.117Z,42.84
2019-04-16T07:36:30.245Z,42.84
2019-04-16T07:37:39.392Z,42.94
2019-04-16T07:38:48.810Z,42.74
2019-04-16T07:39:58.005Z,42.74
2019-04-16T07:41:16.987Z,42.86
2019-04-16T07:42:28.894Z,42.67
2019-04-16T07:43:37.796Z,42.67
2019-04-16T07:44:46.688Z,42.65
2019-04-16T07:45:57.812Z,42.84
2019-04-16T07:47:06.955Z,42.86
2019-04-16T07:48:16.094Z,42.96
2019-04-16T07:49:29.929Z,42.96
2019-04-16T07:50:39.611Z,42.86
2019-04-16T07:51:48.818Z,43.05
2019-04-16T07:52:57.959Z,42.67
2019-04-16T07:54:07.102Z,42.86
2019-04-16T07:55:16.260Z,42.84
2019-04-16T07:56:29.672Z,42.74
2019-04-16T07:57:38.818Z,42.67
2019-04-16T07:58:47.980Z,42.47
2019-04-16T08:00:05.660Z,42.47
2019-04-16T08:01:18.714Z,42.29
2019-04-16T08:02:27.590Z,42.47
2019-04-16T08:03:36.514Z,42.47
2019-04-16T08:04:45.660Z,42.19
2019-04-16T08:05:54.813Z,42.29
2019-04-16T08:07:04.585Z,42.29
2019-04-16T08:08:13.734Z,42.19
2019-04-16T08:09:33.616Z,42.47
2019-04-16T08:10:42.649Z,42.29
2019-04-16T08:11:51.530Z,42.57
2019-04-16T08:13:03.018Z,42.47
2019-04-16T08:14:14.665Z,42.47
2019-04-16T08:15:23.998Z,42.38
2019-04-16T08:16:46.216Z,42.47
2019-04-16T08:17:55.886Z,42.38
2019-04-16T08:19:04.762Z,42.47
2019-04-16T08:20:22.390Z,42.47
2019-04-16T08:21:31.828Z,42.29
2019-04-16T08:22:49.612Z,42.57
2019-04-16T08:23:58.498Z,42.29
2019-04-16T08:25:07.593Z,42.47
2019-04-16T08:26:17.190Z,42.67
2019-04-16T08:27:26.782Z,42.77
2019-04-16T08:28:35.669Z,42.77
2019-04-16T08:29:44.557Z,42.67
2019-04-16T08:30:54.054Z,42.67
2019-04-16T08:32:02.936Z,42.96
2019-04-16T08:33:13.647Z,42.86
2019-04-16T08:34:22.529Z,42.47
2019-04-16T08:35:31.695Z,42.86
2019-04-16T08:36:40.846Z,42.86
2019-04-16T08:37:51.644Z,42.96
2019-04-16T08:39:08.411Z,42.86
2019-04-16T08:40:17.296Z,43.05
2019-04-16T08:41:26.725Z,42.86
2019-04-16T08:42:46.484Z,42.86
2019-04-16T08:44:05.014Z,43.05
2019-04-16T08:45:20.282Z,42.86
2019-04-16T08:46:30.854Z,42.86
2019-04-16T08:47:46.841Z,42.67
2019-04-16T08:48:57.060Z,42.47
2019-04-16T08:50:05.945Z,42.67
2019-04-16T08:51:36.891Z,42.67
2019-04-16T08:52:46.051Z,42.67
2019-04-16T08:53:54.928Z,42.67
2019-04-16T08:55:04.631Z,42.67
2019-04-16T08:56:14.477Z,42.67
2019-04-16T08:57:23.363Z,42.67
2019-04-16T08:58:40.083Z,42.96
2019-04-16T08:59:49.248Z,42.96
2019-04-16T09:00:58.621Z,42.96
2019-04-16T09:02:08.032Z,42.96
2019-04-16T09:03:17.756Z,42.96
2019-04-16T09:04:36.816Z,42.86
2019-04-16T09:05:45.690Z,42.86
2019-04-16T09:06:55.105Z,42.96
2019-04-16T09:08:24.801Z,42.57
2019-04-16T09:09:33.989Z,42.67
2019-04-16T09:10:44.699Z,42.67
2019-04-16T09:11:54.523Z,42.67
2019-04-16T09:13:06.910Z,42.86
2019-04-16T09:14:25.614Z,42.86
2019-04-16T09:15:35.041Z,42.67
2019-04-16T09:16:45.799Z,42.86
2019-04-16T09:17:54.947Z,42.86
2019-04-16T09:19:03.829Z,42.67
2019-04-16T09:20:13.051Z,42.77
2019-04-16T09:21:27.896Z,42.86
2019-04-16T09:22:53.579Z,42.67
2019-04-16T09:24:10.982Z,42.77
2019-04-16T09:25:20.754Z,42.77
2019-04-16T09:26:29.909Z,42.77
2019-04-16T09:27:39.069Z,42.67
2019-04-16T09:28:48.216Z,42.77
2019-04-16T09:29:57.480Z,42.86
2019-04-16T09:31:06.693Z,42.67
2019-04-16T09:32:15.572Z,42.77
2019-04-16T09:33:35.373Z,42.96
2019-04-16T09:34:44.518Z,42.67
2019-04-16T09:35:53.440Z,42.96
2019-04-16T09:37:02.785Z,42.96
2019-04-16T09:38:15.542Z,43.05
2019-04-16T09:39:25.066Z,42.67
2019-04-16T09:40:34.210Z,42.67
2019-04-16T09:41:43.089Z,42.67
2019-04-16T09:42:52.567Z,42.67
2019-04-16T09:44:01.480Z,42.86
2019-04-16T09:45:10.911Z,42.57
2019-04-16T09:46:50.231Z,42.86
2019-04-16T09:48:07.857Z,42.86
2019-04-16T09:49:17.277Z,42.67
2019-04-16T09:50:26.431Z,42.77
2019-04-16T09:51:35.327Z,42.67
2019-04-16T09:52:44.218Z,42.86
2019-04-16T09:53:57.484Z,42.69
2019-04-16T09:55:06.366Z,42.88
2019-04-16T09:56:28.240Z,42.88
2019-04-16T09:57:38.581Z,42.88
2019-04-16T09:58:47.463Z,42.88
2019-04-16T09:59:56.391Z,42.88
2019-04-16T10:01:05.548Z,42.79
2019-04-16T10:02:14.436Z,42.69
2019-04-16T10:03:24.003Z,43.17
2019-04-16T10:04:35.257Z,42.98
2019-04-16T10:05:44.457Z,42.88
2019-04-16T10:06:54.166Z,42.79
2019-04-16T10:08:03.614Z,42.79
2019-04-16T10:09:22.658Z,42.79
2019-04-16T10:10:32.025Z,42.79
2019-04-16T10:11:40.998Z,42.69
2019-04-16T10:12:50.245Z,42.79
2019-04-16T10:13:59.152Z,42.69
2019-04-16T10:15:08.126Z,42.79
2019-04-16T10:16:17.629Z,42.98
2019-04-16T10:17:26.619Z,42.98
2019-04-16T10:18:38.261Z,42.98
2019-04-16T10:19:47.458Z,42.79
2019-04-16T10:20:56.949Z,43.07
2019-04-16T10:22:05.900Z,43.07
2019-04-16T10:23:14.943Z,42.69
2019-04-16T10:24:24.212Z,43.07
2019-04-16T10:25:36.002Z,43.07
2019-04-16T10:26:45.586Z,42.88
2019-04-16T10:27:55.614Z,42.98
2019-04-16T10:29:08.615Z,42.6
2019-04-16T10:30:17.841Z,42.98
2019-04-16T10:31:26.727Z,43.17
2019-04-16T10:32:36.538Z,42.98
2019-04-16T10:33:45.476Z,43.07
2019-04-16T10:34:54.946Z,42.69
2019-04-16T10:36:08.377Z,42.98
2019-04-16T10:37:17.677Z,42.69
2019-04-16T10:38:26.796Z,42.79
2019-04-16T10:39:35.726Z,42.4
2019-04-16T10:40:44.735Z,42.79
2019-04-16T10:41:56.377Z,42.79
2019-04-16T10:43:05.450Z,42.79
2019-04-16T10:44:15.470Z,42.69
2019-04-16T10:45:24.889Z,42.3
2019-04-16T10:46:34.142Z,42.5
2019-04-16T10:47:43.702Z,42.5
2019-04-16T10:48:52.654Z,42.4
2019-04-16T10:50:01.825Z,42.3
2019-04-16T10:51:15.155Z,42.3
2019-04-16T10:52:24.701Z,42.69
2019-04-16T10:53:33.628Z,42.6
2019-04-16T10:54:43.408Z,42.6
2019-04-16T10:55:52.648Z,42.6
2019-04-16T10:57:02.096Z,42.69
2019-04-16T10:58:14.895Z,42.5
2019-04-16T10:59:23.841Z,42.4
2019-04-16T11:00:33.057Z,42.4
2019-04-16T11:01:41.986Z,42.3
2019-04-16T11:02:51.452Z,42.4
2019-04-16T11:04:00.391Z,42.3
2019-04-16T11:05:15.191Z,42.4
2019-04-16T11:06:28.032Z,42.3
2019-04-16T11:07:37.065Z,42.4
2019-04-16T11:08:47.177Z,42.5
2019-04-16T11:09:56.070Z,42.5
2019-04-16T11:11:04.985Z,42.4
2019-04-16T11:12:13.908Z,42.5
2019-04-16T11:13:24.814Z,42.5
2019-04-16T11:14:34.061Z,42.4
2019-04-16T11:15:43.617Z,42.5
2019-04-16T11:16:52.596Z,42.21
2019-04-16T11:18:01.868Z,42.21
2019-04-16T11:19:11.048Z,42.5
2019-04-16T11:20:20.112Z,42.4
2019-04-16T11:21:29.083Z,42.3
2019-04-16T11:22:38.569Z,42.5
2019-04-16T11:23:47.861Z,42.5
2019-04-16T11:24:56.840Z,42.6
2019-04-16T11:26:06.764Z,42.5
2019-04-16T11:27:15.928Z,42.3
2019-04-16T11:28:25.142Z,42.4
2019-04-16T11:29:34.325Z,42.4
2019-04-16T11:30:50.797Z,42.5
2019-04-16T11:32:00.333Z,42.5
2019-04-16T11:33:10.078Z,42.3
2019-04-16T11:34:19.407Z,42.3
2019-04-16T11:35:28.598Z,42.5
2019-04-16T11:36:38.117Z,42.5
2019-04-16T11:37:47.369Z,42.6
2019-04-16T11:38:56.869Z,42.4
2019-04-16T11:40:06.999Z,42.5
2019-04-16T11:41:16.284Z,42.4
2019-04-16T11:42:25.726Z,42.4
2019-04-16T11:43:34.963Z,42.3
2019-04-16T11:44:43.937Z,42.3
2019-04-16T11:45:55.290Z,42.3
2019-04-16T11:47:04.834Z,42.3
2019-04-16T11:48:14.439Z,42.21
2019-04-16T11:49:23.579Z,42.5
2019-04-16T11:50:35.908Z,42.3
2019-04-16T11:51:45.399Z,42.3
2019-04-16T11:52:59.645Z,42.3
2019-04-16T11:54:11.380Z,42.69
2019-04-16T11:55:21.518Z,42.4
2019-04-16T11:56:30.558Z,42.4
2019-04-16T11:57:40.094Z,42.6
2019-04-16T11:58:49.081Z,42.6
2019-04-16T12:00:10.137Z,42.6
2019-04-16T12:01:22.864Z,42.69
2019-04-16T12:02:32.521Z,42.88
2019-04-16T12:03:45.798Z,42.98
2019-04-16T12:05:01.581Z,42.69
2019-04-16T12:06:10.885Z,42.69
2019-04-16T12:07:34.601Z,42.79
2019-04-16T12:08:43.873Z,42.69
2019-04-16T12:09:53.288Z,42.98
2019-04-16T12:11:02.536Z,42.98
2019-04-16T12:12:11.792Z,42.79
2019-04-16T12:13:20.742Z,42.79
2019-04-16T12:14:41.827Z,42.98
2019-04-16T12:15:51.522Z,43.07
2019-04-16T12:17:00.498Z,42.79
2019-04-16T12:18:09.599Z,42.79
2019-04-16T12:19:19.011Z,42.79
2019-04-16T12:20:28.611Z,42.98
2019-04-16T12:21:37.516Z,42.79
2019-04-16T12:22:46.745Z,42.88
2019-04-16T12:23:55.718Z,42.88
2019-04-16T12:25:05.204Z,42.79
2019-04-16T12:26:14.773Z,42.88
2019-04-16T12:27:23.820Z,43.17
2019-04-16T12:28:33.106Z,43.07
2019-04-16T12:29:47.050Z,42.79
2019-04-16T12:30:56.066Z,42.69
2019-04-16T12:32:07.296Z,42.69
2019-04-16T12:33:16.943Z,43.07
2019-04-16T12:34:26.063Z,42.88
2019-04-16T12:35:37.962Z,42.5
2019-04-16T12:36:50.690Z,42.69
2019-04-16T12:38:00.214Z,42.6
2019-04-16T12:39:18.316Z,42.6
2019-04-16T12:40:28.546Z,42.88
2019-04-16T12:41:38.066Z,43.07
2019-04-16T12:42:47.037Z,42.98
2019-04-16T12:43:56.637Z,43.07
2019-04-16T12:45:08.588Z,42.98
2019-04-16T12:46:18.442Z,43.27
2019-04-16T12:47:27.728Z,42.98
2019-04-16T12:48:36.743Z,42.98
2019-04-16T12:49:45.957Z,42.98
2019-04-16T12:50:54.966Z,42.98
2019-04-16T12:52:04.290Z,43.27
2019-04-16T12:53:18.680Z,43.27
2019-04-16T12:54:28.789Z,43.27
2019-04-16T12:55:40.578Z,43.17
2019-04-16T12:56:50.086Z,43.27
2019-04-16T12:58:01.180Z,43.27
2019-04-16T12:59:10.838Z,43.27
2019-04-16T13:00:31.490Z,43.17
2019-04-16T13:01:40.840Z,43.27
2019-04-16T13:02:49.726Z,43.27
2019-04-16T13:03:59.136Z,43.17
2019-04-16T13:05:08.615Z,43.27
2019-04-16T13:06:17.862Z,43.46
2019-04-16T13:07:30.832Z,43.46
2019-04-16T13:08:43.758Z,43.46
2019-04-16T13:09:56.030Z,43.27
2019-04-16T13:11:07.968Z,43.27
2019-04-16T13:12:17.855Z,43.55
2019-04-16T13:13:26.735Z,43.27
2019-04-16T13:14:37.705Z,43.55
2019-04-16T13:16:02.254Z,43.27
2019-04-16T13:17:11.679Z,43.46
2019-04-16T13:18:25.610Z,43.36
2019-04-16T13:19:34.754Z,43.46
2019-04-16T13:20:43.628Z,43.46
2019-04-16T13:21:52.784Z,43.46
2019-04-16T13:23:04.800Z,43.46
2019-04-16T13:24:14.080Z,43.27
2019-04-16T13:25:23.226Z,43.17
2019-04-16T13:26:32.375Z,43.27
2019-04-16T13:27:41.252Z,43.36
2019-04-16T13:28:57.550Z,43.55
2019-04-16T13:30:06.694Z,43.46
2019-04-16T13:31:15.848Z,43.55
2019-04-16T13:32:27.750Z,43.36
2019-04-16T13:33:37.036Z,43.46
2019-04-16T13:34:49.181Z,43.46
2019-04-16T13:36:00.488Z,43.36
2019-04-16T13:37:09.912Z,43.55
2019-04-16T13:38:18.783Z,43.55
2019-04-16T13:39:28.210Z,43.65
2019-04-16T13:40:37.134Z,43.55
2019-04-16T13:41:48.957Z,43.84
2019-04-16T13:42:58.108Z,43.55
2019-04-16T13:44:12.765Z,43.74
2019-04-16T13:45:29.361Z,43.65
2019-04-16T13:46:38.839Z,43.65
2019-04-16T13:47:47.714Z,43.65
2019-04-16T13:49:17.821Z,43.55
2019-04-16T13:50:40.889Z,43.65
2019-04-16T13:51:50.619Z,43.65
2019-04-16T13:53:02.064Z,43.65
2019-04-16T13:54:11.486Z,43.55
2019-04-16T13:55:20.902Z,43.55
2019-04-16T13:56:29.832Z,43.84
2019-04-16T13:57:38.729Z,43.65
2019-04-16T13:58:47.601Z,43.65
2019-04-16T14:00:02.696Z,43.65
2019-04-16T14:01:13.394Z,43.74
2019-04-16T14:02:22.571Z,43.65
2019-04-16T14:03:31.714Z,43.65
2019-04-16T14:04:40.863Z,43.65
2019-04-16T14:05:50.548Z,43.27
2019-04-16T14:06:59.700Z,43.55
2019-04-16T14:08:09.327Z,43.55
2019-04-16T14:09:18.215Z,43.46
2019-04-16T14:10:27.101Z,43.65
2019-04-16T14:11:36.259Z,43.84
2019-04-16T14:12:45.688Z,43.36
2019-04-16T14:13:55.106Z,43.65
2019-04-16T14:15:08.271Z,43.65
2019-04-16T14:16:17.152Z,43.65
2019-04-16T14:17:26.317Z,43.65
2019-04-16T14:18:42.316Z,43.74
2019-04-16T14:19:51.989Z,43.74
2019-04-16T14:21:01.462Z,43.84
2019-04-16T14:22:10.442Z,43.46
2019-04-16T14:23:24.523Z,43.55
2019-04-16T14:24:33.395Z,43.65
2019-04-16T14:25:43.340Z,43.65
2019-04-16T14:26:52.221Z,43.65
2019-04-16T14:28:05.900Z,43.65
2019-04-16T14:29:15.139Z,43.65
2019-04-16T14:30:27.341Z,43.46
2019-04-16T14:31:36.783Z,43.65
2019-04-16T14:32:48.633Z,43.07
2019-04-16T14:33:57.506Z,43.65
2019-04-16T14:35:06.427Z,43.55
2019-04-16T14:36:15.576Z,43.27
2019-04-16T14:37:24.993Z,43.27
2019-04-16T14:38:34.672Z,43.27
2019-04-16T14:39:43.561Z,43.65
2019-04-16T14:40:52.443Z,43.65
2019-04-16T14:42:02.118Z,43.55
2019-04-16T14:43:11.057Z,43.46
2019-04-16T14:44:19.932Z,43.84
2019-04-16T14:45:29.079Z,43.55
2019-04-16T14:47:04.235Z,43.74
2019-04-16T14:48:13.501Z,43.65
2019-04-16T14:49:22.645Z,43.65
2019-04-16T14:50:35.632Z,43.27
2019-04-16T14:51:44.784Z,43.65
2019-04-16T14:52:53.661Z,43.27
2019-04-16T14:54:03.209Z,43.65
2019-04-16T14:55:12.360Z,43.55
2019-04-16T14:56:21.783Z,43.55
2019-04-16T14:57:30.941Z,43.65
2019-04-16T14:58:42.539Z,43.55
2019-04-16T14:59:51.736Z,43.65
2019-04-16T15:01:00.620Z,43.17
2019-04-16T15:02:10.092Z,43.55
2019-04-16T15:03:19.255Z,43.65
2019-04-16T15:04:28.397Z,43.46
2019-04-16T15:05:37.542Z,43.74
2019-04-16T15:06:55.680Z,43.65
2019-04-16T15:08:05.388Z,43.84
2019-04-16T15:09:14.542Z,43.65
2019-04-16T15:10:23.965Z,43.74
2019-04-16T15:11:33.169Z,43.84
2019-04-16T15:12:42.051Z,43.84
2019-04-16T15:13:50.939Z,43.74
2019-04-16T15:14:59.823Z,43.74
2019-04-16T15:16:20.979Z,43.84